sensor_id;sensor_type;location;lat;lon;timestamp;P1;durP1;ratioP1;P2;durP2;ratioP2
22468;SDS011;11401;50.792;4.352;2023-04-25T00:02:13;14.98;;;3.78;;
22468;SDS011;11401;50.792;4.352;2023-04-25T00:04:41;9.18;;;3.95;;
22468;SDS011;11401;50.792;4.352;2023-04-25T00:07:09;10.65;;;4.53;;
22468;SDS011;11401;50.792;4.352;2023-04-25T00:09:36;13.05;;;4.47;;
22468;SDS011;11401;50.792;4.352;2023-04-25T00:12:03;11.48;;;4.10;;
22468;SDS011;11401;50.792;4.352;2023-04-25T00:14:31;13.27;;;3.90;;
22468;SDS011;11401;50.792;4.352;2023-04-25T00:17:00;10.27;;;3.92;;
22468;SDS011;11401;50.792;4.352;2023-04-25T00:19:27;14.18;;;4.38;;
22468;SDS011;11401;50.792;4.352;2023-04-25T00:21:55;6.40;;;3.80;;
22468;SDS011;11401;50.792;4.352;2023-04-25T00:24:22;6.57;;;3.70;;
22468;SDS011;11401;50.792;4.352;2023-04-25T00:26:49;12.02;;;3.78;;
22468;SDS011;11401;50.792;4.352;2023-04-25T00:29:16;11.63;;;3.45;;
22468;SDS011;11401;50.792;4.352;2023-04-25T00:31:43;10.85;;;3.53;;
22468;SDS011;11401;50.792;4.352;2023-04-25T00:34:10;15.15;;;4.35;;
22468;SDS011;11401;50.792;4.352;2023-04-25T00:36:37;11.38;;;3.70;;
22468;SDS011;11401;50.792;4.352;2023-04-25T00:39:04;9.98;;;3.80;;
22468;SDS011;11401;50.792;4.352;2023-04-25T00:41:32;10.13;;;3.72;;
22468;SDS011;11401;50.792;4.352;2023-04-25T00:43:59;12.90;;;3.83;;
22468;SDS011;11401;50.792;4.352;2023-04-25T00:46:28;14.30;;;3.80;;
22468;SDS011;11401;50.792;4.352;2023-04-25T00:48:56;7.65;;;3.08;;
22468;SDS011;11401;50.792;4.352;2023-04-25T00:51:23;9.40;;;3.65;;
22468;SDS011;11401;50.792;4.352;2023-04-25T00:53:53;11.05;;;4.13;;
22468;SDS011;11401;50.792;4.352;2023-04-25T00:56:20;11.13;;;4.00;;
22468;SDS011;11401;50.792;4.352;2023-04-25T00:58:47;11.63;;;3.75;;
22468;SDS011;11401;50.792;4.352;2023-04-25T01:01:15;8.70;;;3.38;;
22468;SDS011;11401;50.792;4.352;2023-04-25T01:03:42;10.80;;;3.38;;
22468;SDS011;11401;50.792;4.352;2023-04-25T01:06:13;13.48;;;4.28;;
22468;SDS011;11401;50.792;4.352;2023-04-25T01:08:42;10.20;;;3.35;;
22468;SDS011;11401;50.792;4.352;2023-04-25T01:11:09;14.35;;;4.43;;
22468;SDS011;11401;50.792;4.352;2023-04-25T01:13:37;9.48;;;4.03;;
22468;SDS011;11401;50.792;4.352;2023-04-25T01:16:04;10.45;;;4.03;;
22468;SDS011;11401;50.792;4.352;2023-04-25T01:18:31;14.32;;;4.68;;
22468;SDS011;11401;50.792;4.352;2023-04-25T01:21:08;12.85;;;4.07;;
22468;SDS011;11401;50.792;4.352;2023-04-25T01:23:37;11.63;;;3.92;;
22468;SDS011;11401;50.792;4.352;2023-04-25T01:26:07;13.68;;;4.30;;
22468;SDS011;11401;50.792;4.352;2023-04-25T01:28:36;11.55;;;4.05;;
22468;SDS011;11401;50.792;4.352;2023-04-25T01:31:08;10.82;;;4.22;;
22468;SDS011;11401;50.792;4.352;2023-04-25T01:33:35;12.88;;;3.97;;
22468;SDS011;11401;50.792;4.352;2023-04-25T01:36:04;12.00;;;3.83;;
22468;SDS011;11401;50.792;4.352;2023-04-25T01:38:33;15.00;;;4.13;;
22468;SDS011;11401;50.792;4.352;2023-04-25T01:41:01;9.50;;;3.65;;
22468;SDS011;11401;50.792;4.352;2023-04-25T01:43:28;11.05;;;4.70;;
22468;SDS011;11401;50.792;4.352;2023-04-25T01:45:55;11.20;;;4.07;;
22468;SDS011;11401;50.792;4.352;2023-04-25T01:48:23;11.57;;;4.40;;
22468;SDS011;11401;50.792;4.352;2023-04-25T01:50:50;16.05;;;4.25;;
22468;SDS011;11401;50.792;4.352;2023-04-25T01:53:17;12.23;;;4.22;;
22468;SDS011;11401;50.792;4.352;2023-04-25T01:55:45;13.52;;;4.80;;
22468;SDS011;11401;50.792;4.352;2023-04-25T01:58:16;9.30;;;3.78;;
22468;SDS011;11401;50.792;4.352;2023-04-25T02:00:57;13.68;;;5.28;;
22468;SDS011;11401;50.792;4.352;2023-04-25T02:03:31;17.13;;;4.28;;
22468;SDS011;11401;50.792;4.352;2023-04-25T02:06:00;6.93;;;3.72;;
22468;SDS011;11401;50.792;4.352;2023-04-25T02:08:29;13.70;;;4.30;;
22468;SDS011;11401;50.792;4.352;2023-04-25T02:10:57;10.43;;;3.78;;
22468;SDS011;11401;50.792;4.352;2023-04-25T02:13:30;11.65;;;4.28;;
22468;SDS011;11401;50.792;4.352;2023-04-25T02:16:01;12.18;;;3.85;;
22468;SDS011;11401;50.792;4.352;2023-04-25T02:18:29;11.57;;;4.03;;
22468;SDS011;11401;50.792;4.352;2023-04-25T02:20:59;9.45;;;3.85;;
22468;SDS011;11401;50.792;4.352;2023-04-25T02:23:27;11.05;;;3.92;;
22468;SDS011;11401;50.792;4.352;2023-04-25T02:25:56;17.25;;;4.35;;
22468;SDS011;11401;50.792;4.352;2023-04-25T02:28:24;9.48;;;3.50;;
22468;SDS011;11401;50.792;4.352;2023-04-25T02:30:52;10.95;;;4.13;;
22468;SDS011;11401;50.792;4.352;2023-04-25T02:33:19;8.25;;;3.45;;
22468;SDS011;11401;50.792;4.352;2023-04-25T02:35:47;14.32;;;4.38;;
22468;SDS011;11401;50.792;4.352;2023-04-25T02:38:14;13.02;;;4.20;;
22468;SDS011;11401;50.792;4.352;2023-04-25T02:40:41;13.55;;;3.92;;
22468;SDS011;11401;50.792;4.352;2023-04-25T02:43:08;8.70;;;3.78;;
22468;SDS011;11401;50.792;4.352;2023-04-25T02:45:35;18.42;;;4.47;;
22468;SDS011;11401;50.792;4.352;2023-04-25T02:48:02;13.23;;;4.05;;
22468;SDS011;11401;50.792;4.352;2023-04-25T02:50:31;11.45;;;3.85;;
22468;SDS011;11401;50.792;4.352;2023-04-25T02:52:59;10.93;;;3.67;;
22468;SDS011;11401;50.792;4.352;2023-04-25T02:55:33;11.50;;;4.10;;
22468;SDS011;11401;50.792;4.352;2023-04-25T02:58:04;7.90;;;3.22;;
22468;SDS011;11401;50.792;4.352;2023-04-25T03:00:43;13.05;;;4.00;;
22468;SDS011;11401;50.792;4.352;2023-04-25T03:03:10;11.48;;;3.47;;
22468;SDS011;11401;50.792;4.352;2023-04-25T03:05:37;8.20;;;3.47;;
22468;SDS011;11401;50.792;4.352;2023-04-25T03:08:05;8.48;;;4.25;;
22468;SDS011;11401;50.792;4.352;2023-04-25T03:10:33;6.57;;;3.38;;
22468;SDS011;11401;50.792;4.352;2023-04-25T03:13:04;15.93;;;4.97;;
22468;SDS011;11401;50.792;4.352;2023-04-25T03:15:32;12.48;;;4.22;;
22468;SDS011;11401;50.792;4.352;2023-04-25T03:18:00;9.75;;;3.63;;
22468;SDS011;11401;50.792;4.352;2023-04-25T03:20:27;9.35;;;3.95;;
22468;SDS011;11401;50.792;4.352;2023-04-25T03:22:54;11.65;;;3.92;;
22468;SDS011;11401;50.792;4.352;2023-04-25T03:25:23;9.52;;;3.80;;
22468;SDS011;11401;50.792;4.352;2023-04-25T03:27:50;10.10;;;4.30;;
22468;SDS011;11401;50.792;4.352;2023-04-25T03:30:17;11.90;;;3.95;;
22468;SDS011;11401;50.792;4.352;2023-04-25T03:32:44;11.75;;;5.00;;
22468;SDS011;11401;50.792;4.352;2023-04-25T03:35:15;12.50;;;3.63;;
22468;SDS011;11401;50.792;4.352;2023-04-25T03:37:42;10.63;;;3.88;;
22468;SDS011;11401;50.792;4.352;2023-04-25T03:40:16;13.90;;;4.10;;
22468;SDS011;11401;50.792;4.352;2023-04-25T03:43:10;16.70;;;4.10;;
22468;SDS011;11401;50.792;4.352;2023-04-25T03:45:41;12.18;;;3.65;;
22468;SDS011;11401;50.792;4.352;2023-04-25T03:48:08;13.60;;;3.85;;
22468;SDS011;11401;50.792;4.352;2023-04-25T03:50:35;13.95;;;4.82;;
22468;SDS011;11401;50.792;4.352;2023-04-25T03:53:04;12.02;;;4.60;;
22468;SDS011;11401;50.792;4.352;2023-04-25T03:55:45;13.85;;;5.45;;
22468;SDS011;11401;50.792;4.352;2023-04-25T03:58:12;15.43;;;4.35;;
22468;SDS011;11401;50.792;4.352;2023-04-25T04:00:39;11.32;;;4.18;;
22468;SDS011;11401;50.792;4.352;2023-04-25T04:03:07;12.77;;;4.28;;
22468;SDS011;11401;50.792;4.352;2023-04-25T04:05:34;13.82;;;4.07;;
22468;SDS011;11401;50.792;4.352;2023-04-25T04:08:01;15.25;;;4.50;;
22468;SDS011;11401;50.792;4.352;2023-04-25T04:10:29;14.73;;;3.85;;
22468;SDS011;11401;50.792;4.352;2023-04-25T04:12:56;14.13;;;3.83;;
22468;SDS011;11401;50.792;4.352;2023-04-25T04:15:23;12.88;;;4.13;;
22468;SDS011;11401;50.792;4.352;2023-04-25T04:17:50;6.82;;;3.55;;
22468;SDS011;11401;50.792;4.352;2023-04-25T04:20:17;10.07;;;4.25;;
22468;SDS011;11401;50.792;4.352;2023-04-25T04:22:45;9.02;;;3.97;;
22468;SDS011;11401;50.792;4.352;2023-04-25T04:25:14;10.82;;;4.53;;
22468;SDS011;11401;50.792;4.352;2023-04-25T04:28:01;12.65;;;4.70;;
22468;SDS011;11401;50.792;4.352;2023-04-25T04:30:40;8.75;;;3.28;;
22468;SDS011;11401;50.792;4.352;2023-04-25T04:33:08;10.85;;;4.00;;
22468;SDS011;11401;50.792;4.352;2023-04-25T04:35:35;10.13;;;4.13;;
22468;SDS011;11401;50.792;4.352;2023-04-25T04:38:03;7.00;;;3.17;;
22468;SDS011;11401;50.792;4.352;2023-04-25T04:40:33;12.23;;;3.97;;
22468;SDS011;11401;50.792;4.352;2023-04-25T04:43:07;8.85;;;3.28;;
22468;SDS011;11401;50.792;4.352;2023-04-25T04:46:08;12.65;;;4.03;;
22468;SDS011;11401;50.792;4.352;2023-04-25T04:49:12;10.80;;;3.67;;
22468;SDS011;11401;50.792;4.352;2023-04-25T04:52:02;7.57;;;3.30;;
22468;SDS011;11401;50.792;4.352;2023-04-25T04:54:39;10.60;;;3.88;;
22468;SDS011;11401;50.792;4.352;2023-04-25T04:57:13;12.60;;;3.78;;
22468;SDS011;11401;50.792;4.352;2023-04-25T05:00:09;12.35;;;4.03;;
22468;SDS011;11401;50.792;4.352;2023-04-25T05:02:56;10.52;;;3.60;;
22468;SDS011;11401;50.792;4.352;2023-04-25T05:05:42;15.95;;;3.92;;
22468;SDS011;11401;50.792;4.352;2023-04-25T05:08:26;11.48;;;3.95;;
22468;SDS011;11401;50.792;4.352;2023-04-25T05:11:13;8.13;;;3.63;;
22468;SDS011;11401;50.792;4.352;2023-04-25T05:14:12;12.27;;;4.60;;
22468;SDS011;11401;50.792;4.352;2023-04-25T05:16:54;10.35;;;3.88;;
22468;SDS011;11401;50.792;4.352;2023-04-25T05:19:32;16.38;;;4.40;;
22468;SDS011;11401;50.792;4.352;2023-04-25T05:22:37;16.10;;;4.40;;
22468;SDS011;11401;50.792;4.352;2023-04-25T05:25:11;12.18;;;4.72;;
22468;SDS011;11401;50.792;4.352;2023-04-25T05:27:50;12.18;;;3.88;;
22468;SDS011;11401;50.792;4.352;2023-04-25T05:30:44;10.45;;;4.40;;
22468;SDS011;11401;50.792;4.352;2023-04-25T05:33:27;9.82;;;3.80;;
22468;SDS011;11401;50.792;4.352;2023-04-25T05:35:54;10.98;;;4.13;;
22468;SDS011;11401;50.792;4.352;2023-04-25T05:38:22;12.60;;;4.18;;
22468;SDS011;11401;50.792;4.352;2023-04-25T05:41:04;14.02;;;4.68;;
22468;SDS011;11401;50.792;4.352;2023-04-25T05:43:38;14.07;;;5.35;;
22468;SDS011;11401;50.792;4.352;2023-04-25T05:46:23;13.00;;;5.43;;
22468;SDS011;11401;50.792;4.352;2023-04-25T05:49:09;18.15;;;4.88;;
22468;SDS011;11401;50.792;4.352;2023-04-25T05:51:56;12.60;;;5.50;;
22468;SDS011;11401;50.792;4.352;2023-04-25T05:54:32;12.52;;;5.13;;
22468;SDS011;11401;50.792;4.352;2023-04-25T05:57:00;15.60;;;5.40;;
22468;SDS011;11401;50.792;4.352;2023-04-25T05:59:29;17.30;;;4.88;;
22468;SDS011;11401;50.792;4.352;2023-04-25T06:01:56;10.57;;;4.43;;
22468;SDS011;11401;50.792;4.352;2023-04-25T06:04:24;13.88;;;4.38;;
22468;SDS011;11401;50.792;4.352;2023-04-25T06:06:53;14.05;;;4.65;;
22468;SDS011;11401;50.792;4.352;2023-04-25T06:09:21;12.43;;;4.60;;
22468;SDS011;11401;50.792;4.352;2023-04-25T06:11:49;10.73;;;4.18;;
22468;SDS011;11401;50.792;4.352;2023-04-25T06:14:16;14.27;;;4.55;;
22468;SDS011;11401;50.792;4.352;2023-04-25T06:16:47;7.57;;;3.53;;
22468;SDS011;11401;50.792;4.352;2023-04-25T06:19:14;12.93;;;3.45;;
22468;SDS011;11401;50.792;4.352;2023-04-25T06:21:42;10.50;;;4.00;;
22468;SDS011;11401;50.792;4.352;2023-04-25T06:24:10;13.45;;;3.90;;
22468;SDS011;11401;50.792;4.352;2023-04-25T06:26:37;8.75;;;3.80;;
22468;SDS011;11401;50.792;4.352;2023-04-25T06:29:05;10.88;;;3.83;;
22468;SDS011;11401;50.792;4.352;2023-04-25T06:31:32;11.13;;;4.32;;
22468;SDS011;11401;50.792;4.352;2023-04-25T06:34:00;12.35;;;4.85;;
22468;SDS011;11401;50.792;4.352;2023-04-25T06:36:29;10.30;;;4.20;;
22468;SDS011;11401;50.792;4.352;2023-04-25T06:39:03;11.80;;;4.93;;
22468;SDS011;11401;50.792;4.352;2023-04-25T06:41:32;13.98;;;4.70;;
22468;SDS011;11401;50.792;4.352;2023-04-25T06:44:01;6.60;;;3.70;;
22468;SDS011;11401;50.792;4.352;2023-04-25T06:46:32;9.70;;;4.18;;
22468;SDS011;11401;50.792;4.352;2023-04-25T06:48:59;13.18;;;4.28;;
22468;SDS011;11401;50.792;4.352;2023-04-25T06:51:26;12.07;;;4.30;;
22468;SDS011;11401;50.792;4.352;2023-04-25T06:53:56;17.15;;;6.68;;
22468;SDS011;11401;50.792;4.352;2023-04-25T06:56:33;10.45;;;3.85;;
22468;SDS011;11401;50.792;4.352;2023-04-25T06:59:12;8.82;;;3.78;;
22468;SDS011;11401;50.792;4.352;2023-04-25T07:01:40;10.45;;;3.60;;
22468;SDS011;11401;50.792;4.352;2023-04-25T07:04:13;11.85;;;3.97;;
22468;SDS011;11401;50.792;4.352;2023-04-25T07:06:47;8.45;;;3.78;;
22468;SDS011;11401;50.792;4.352;2023-04-25T07:09:17;9.48;;;3.10;;
22468;SDS011;11401;50.792;4.352;2023-04-25T07:11:46;8.95;;;3.30;;
22468;SDS011;11401;50.792;4.352;2023-04-25T07:14:13;19.33;;;3.90;;
22468;SDS011;11401;50.792;4.352;2023-04-25T07:16:41;12.73;;;3.78;;
22468;SDS011;11401;50.792;4.352;2023-04-25T07:19:09;9.07;;;2.75;;
22468;SDS011;11401;50.792;4.352;2023-04-25T07:21:36;10.05;;;3.83;;
22468;SDS011;11401;50.792;4.352;2023-04-25T07:24:04;10.05;;;3.22;;
22468;SDS011;11401;50.792;4.352;2023-04-25T07:26:35;10.65;;;2.88;;
22468;SDS011;11401;50.792;4.352;2023-04-25T07:29:25;8.95;;;2.97;;
22468;SDS011;11401;50.792;4.352;2023-04-25T07:31:53;13.20;;;3.55;;
22468;SDS011;11401;50.792;4.352;2023-04-25T07:34:21;8.65;;;2.85;;
22468;SDS011;11401;50.792;4.352;2023-04-25T07:36:48;12.00;;;3.45;;
22468;SDS011;11401;50.792;4.352;2023-04-25T07:39:15;9.80;;;3.20;;
22468;SDS011;11401;50.792;4.352;2023-04-25T07:41:43;7.93;;;2.70;;
22468;SDS011;11401;50.792;4.352;2023-04-25T07:44:16;9.63;;;3.15;;
22468;SDS011;11401;50.792;4.352;2023-04-25T07:46:43;8.05;;;2.47;;
22468;SDS011;11401;50.792;4.352;2023-04-25T07:49:11;9.55;;;2.70;;
22468;SDS011;11401;50.792;4.352;2023-04-25T07:51:41;12.48;;;4.07;;
22468;SDS011;11401;50.792;4.352;2023-04-25T07:54:13;9.32;;;3.35;;
22468;SDS011;11401;50.792;4.352;2023-04-25T07:56:46;12.68;;;3.45;;
22468;SDS011;11401;50.792;4.352;2023-04-25T07:59:19;7.38;;;2.72;;
22468;SDS011;11401;50.792;4.352;2023-04-25T08:01:47;8.32;;;3.65;;
22468;SDS011;11401;50.792;4.352;2023-04-25T08:04:16;10.77;;;3.30;;
22468;SDS011;11401;50.792;4.352;2023-04-25T08:06:52;9.23;;;2.55;;
22468;SDS011;11401;50.792;4.352;2023-04-25T08:09:26;9.18;;;2.58;;
22468;SDS011;11401;50.792;4.352;2023-04-25T08:11:55;7.10;;;3.00;;
22468;SDS011;11401;50.792;4.352;2023-04-25T08:14:26;5.15;;;2.65;;
22468;SDS011;11401;50.792;4.352;2023-04-25T08:16:55;10.10;;;3.05;;
22468;SDS011;11401;50.792;4.352;2023-04-25T08:19:23;7.05;;;2.90;;
22468;SDS011;11401;50.792;4.352;2023-04-25T08:33:17;6.55;;;2.65;;
22468;SDS011;11401;50.792;4.352;2023-04-25T08:36:05;12.32;;;2.78;;
22468;SDS011;11401;50.792;4.352;2023-04-25T08:38:32;6.32;;;2.22;;
22468;SDS011;11401;50.792;4.352;2023-04-25T08:41:01;9.95;;;3.13;;
22468;SDS011;11401;50.792;4.352;2023-04-25T08:43:29;8.63;;;3.05;;
22468;SDS011;11401;50.792;4.352;2023-04-25T08:46:00;12.88;;;2.92;;
22468;SDS011;11401;50.792;4.352;2023-04-25T08:48:38;11.80;;;2.50;;
22468;SDS011;11401;50.792;4.352;2023-04-25T08:51:07;9.73;;;3.03;;
22468;SDS011;11401;50.792;4.352;2023-04-25T08:53:37;7.78;;;2.67;;
22468;SDS011;11401;50.792;4.352;2023-04-25T08:56:09;7.18;;;2.47;;
22468;SDS011;11401;50.792;4.352;2023-04-25T08:58:39;8.23;;;2.70;;
22468;SDS011;11401;50.792;4.352;2023-04-25T09:01:07;9.27;;;3.28;;
22468;SDS011;11401;50.792;4.352;2023-04-25T09:03:43;7.53;;;2.65;;
22468;SDS011;11401;50.792;4.352;2023-04-25T09:06:11;7.95;;;3.25;;
22468;SDS011;11401;50.792;4.352;2023-04-25T09:08:38;8.45;;;2.67;;
22468;SDS011;11401;50.792;4.352;2023-04-25T09:11:07;6.43;;;2.50;;
22468;SDS011;11401;50.792;4.352;2023-04-25T09:13:34;9.10;;;2.67;;
22468;SDS011;11401;50.792;4.352;2023-04-25T09:16:10;5.30;;;2.10;;
22468;SDS011;11401;50.792;4.352;2023-04-25T09:18:49;13.60;;;4.20;;
22468;SDS011;11401;50.792;4.352;2023-04-25T09:21:17;10.43;;;3.28;;
22468;SDS011;11401;50.792;4.352;2023-04-25T09:23:49;7.00;;;2.50;;
22468;SDS011;11401;50.792;4.352;2023-04-25T09:26:20;8.50;;;2.47;;
22468;SDS011;11401;50.792;4.352;2023-04-25T09:28:48;8.45;;;2.60;;
22468;SDS011;11401;50.792;4.352;2023-04-25T09:31:31;6.93;;;2.47;;
22468;SDS011;11401;50.792;4.352;2023-04-25T09:34:01;8.95;;;2.75;;
22468;SDS011;11401;50.792;4.352;2023-04-25T09:36:38;8.32;;;3.30;;
22468;SDS011;11401;50.792;4.352;2023-04-25T09:39:32;7.47;;;2.97;;
22468;SDS011;11401;50.792;4.352;2023-04-25T09:42:09;8.95;;;3.28;;
22468;SDS011;11401;50.792;4.352;2023-04-25T09:44:36;6.97;;;2.53;;
22468;SDS011;11401;50.792;4.352;2023-04-25T09:47:03;5.30;;;2.50;;
22468;SDS011;11401;50.792;4.352;2023-04-25T09:49:31;7.32;;;2.65;;
22468;SDS011;11401;50.792;4.352;2023-04-25T09:52:13;4.45;;;1.95;;
22468;SDS011;11401;50.792;4.352;2023-04-25T09:54:59;6.03;;;2.13;;
22468;SDS011;11401;50.792;4.352;2023-04-25T09:57:32;7.75;;;2.70;;
22468;SDS011;11401;50.792;4.352;2023-04-25T10:00:00;8.13;;;2.50;;
22468;SDS011;11401;50.792;4.352;2023-04-25T10:02:39;6.90;;;2.30;;
22468;SDS011;11401;50.792;4.352;2023-04-25T10:05:16;7.60;;;2.42;;
22468;SDS011;11401;50.792;4.352;2023-04-25T10:07:44;5.03;;;2.17;;
22468;SDS011;11401;50.792;4.352;2023-04-25T10:10:15;4.55;;;2.20;;
22468;SDS011;11401;50.792;4.352;2023-04-25T10:12:44;6.13;;;2.03;;
22468;SDS011;11401;50.792;4.352;2023-04-25T10:15:11;3.65;;;2.22;;
22468;SDS011;11401;50.792;4.352;2023-04-25T10:17:40;9.40;;;2.90;;
22468;SDS011;11401;50.792;4.352;2023-04-25T10:20:07;5.45;;;2.38;;
22468;SDS011;11401;50.792;4.352;2023-04-25T10:22:38;5.15;;;2.35;;
22468;SDS011;11401;50.792;4.352;2023-04-25T10:25:08;5.68;;;2.17;;
22468;SDS011;11401;50.792;4.352;2023-04-25T10:27:36;2.75;;;1.98;;
22468;SDS011;11401;50.792;4.352;2023-04-25T10:30:10;8.25;;;2.30;;
22468;SDS011;11401;50.792;4.352;2023-04-25T10:32:42;4.45;;;1.83;;
22468;SDS011;11401;50.792;4.352;2023-04-25T10:35:19;3.22;;;2.10;;
22468;SDS011;11401;50.792;4.352;2023-04-25T10:40:33;4.70;;;1.85;;
22468;SDS011;11401;50.792;4.352;2023-04-25T10:46:27;3.55;;;1.33;;
22468;SDS011;11401;50.792;4.352;2023-04-25T10:48:58;4.78;;;1.52;;
22468;SDS011;11401;50.792;4.352;2023-04-25T10:51:28;4.18;;;1.65;;
22468;SDS011;11401;50.792;4.352;2023-04-25T10:54:18;3.58;;;1.63;;
22468;SDS011;11401;50.792;4.352;2023-04-25T10:56:48;4.18;;;2.08;;
22468;SDS011;11401;50.792;4.352;2023-04-25T10:59:17;3.05;;;1.80;;
22468;SDS011;11401;50.792;4.352;2023-04-25T11:01:52;4.72;;;1.75;;
22468;SDS011;11401;50.792;4.352;2023-04-25T11:04:25;3.83;;;2.00;;
22468;SDS011;11401;50.792;4.352;2023-04-25T11:09:49;7.47;;;1.92;;
22468;SDS011;11401;50.792;4.352;2023-04-25T11:12:16;5.53;;;1.85;;
22468;SDS011;11401;50.792;4.352;2023-04-25T11:14:43;8.52;;;2.13;;
22468;SDS011;11401;50.792;4.352;2023-04-25T11:17:11;3.67;;;2.00;;
22468;SDS011;11401;50.792;4.352;2023-04-25T11:19:38;4.28;;;1.95;;
22468;SDS011;11401;50.792;4.352;2023-04-25T11:22:05;3.00;;;1.85;;
22468;SDS011;11401;50.792;4.352;2023-04-25T11:24:33;3.30;;;1.67;;
22468;SDS011;11401;50.792;4.352;2023-04-25T11:27:01;6.18;;;2.20;;
22468;SDS011;11401;50.792;4.352;2023-04-25T11:29:30;3.55;;;1.70;;
22468;SDS011;11401;50.792;4.352;2023-04-25T11:31:58;6.70;;;1.67;;
22468;SDS011;11401;50.792;4.352;2023-04-25T11:34:28;2.92;;;1.55;;
22468;SDS011;11401;50.792;4.352;2023-04-25T11:37:00;2.83;;;1.63;;
22468;SDS011;11401;50.792;4.352;2023-04-25T11:39:28;4.43;;;1.80;;
22468;SDS011;11401;50.792;4.352;2023-04-25T11:41:55;3.80;;;1.80;;
22468;SDS011;11401;50.792;4.352;2023-04-25T11:44:23;3.88;;;1.73;;
22468;SDS011;11401;50.792;4.352;2023-04-25T11:46:50;3.92;;;2.13;;
22468;SDS011;11401;50.792;4.352;2023-04-25T11:49:17;3.13;;;1.60;;
22468;SDS011;11401;50.792;4.352;2023-04-25T11:51:45;6.38;;;1.52;;
22468;SDS011;11401;50.792;4.352;2023-04-25T11:54:13;5.25;;;1.58;;
22468;SDS011;11401;50.792;4.352;2023-04-25T11:56:41;6.30;;;1.90;;
22468;SDS011;11401;50.792;4.352;2023-04-25T11:59:12;8.50;;;1.73;;
22468;SDS011;11401;50.792;4.352;2023-04-25T12:01:40;4.30;;;1.40;;
22468;SDS011;11401;50.792;4.352;2023-04-25T12:06:42;3.67;;;1.83;;
22468;SDS011;11401;50.792;4.352;2023-04-25T12:09:10;3.80;;;1.75;;
22468;SDS011;11401;50.792;4.352;2023-04-25T12:14:10;6.38;;;1.90;;
22468;SDS011;11401;50.792;4.352;2023-04-25T12:16:45;5.57;;;2.17;;
22468;SDS011;11401;50.792;4.352;2023-04-25T12:19:13;3.67;;;1.50;;
22468;SDS011;11401;50.792;4.352;2023-04-25T12:21:41;4.75;;;2.15;;
22468;SDS011;11401;50.792;4.352;2023-04-25T12:24:16;3.33;;;1.40;;
22468;SDS011;11401;50.792;4.352;2023-04-25T12:29:26;2.78;;;1.52;;
22468;SDS011;11401;50.792;4.352;2023-04-25T12:32:04;4.63;;;1.63;;
22468;SDS011;11401;50.792;4.352;2023-04-25T12:34:31;4.15;;;2.00;;
22468;SDS011;11401;50.792;4.352;2023-04-25T12:37:01;5.20;;;1.67;;
22468;SDS011;11401;50.792;4.352;2023-04-25T12:39:28;5.45;;;2.33;;
22468;SDS011;11401;50.792;4.352;2023-04-25T12:41:55;4.25;;;1.73;;
22468;SDS011;11401;50.792;4.352;2023-04-25T12:44:22;2.15;;;1.40;;
22468;SDS011;11401;50.792;4.352;2023-04-25T12:46:49;3.95;;;1.67;;
22468;SDS011;11401;50.792;4.352;2023-04-25T12:49:16;5.32;;;1.73;;
22468;SDS011;11401;50.792;4.352;2023-04-25T12:51:44;2.63;;;1.60;;
22468;SDS011;11401;50.792;4.352;2023-04-25T12:54:12;1.42;;;1.17;;
22468;SDS011;11401;50.792;4.352;2023-04-25T12:56:41;2.90;;;1.40;;
22468;SDS011;11401;50.792;4.352;2023-04-25T12:59:08;2.60;;;1.48;;
22468;SDS011;11401;50.792;4.352;2023-04-25T13:01:35;5.47;;;1.48;;
22468;SDS011;11401;50.792;4.352;2023-04-25T13:04:03;3.22;;;1.52;;
22468;SDS011;11401;50.792;4.352;2023-04-25T13:06:31;3.60;;;1.40;;
22468;SDS011;11401;50.792;4.352;2023-04-25T13:08:58;2.03;;;1.50;;
22468;SDS011;11401;50.792;4.352;2023-04-25T13:11:25;2.30;;;1.83;;
22468;SDS011;11401;50.792;4.352;2023-04-25T13:13:52;2.35;;;1.40;;
22468;SDS011;11401;50.792;4.352;2023-04-25T13:16:20;1.92;;;1.48;;
22468;SDS011;11401;50.792;4.352;2023-04-25T13:18:48;3.47;;;1.60;;
22468;SDS011;11401;50.792;4.352;2023-04-25T13:21:15;5.25;;;1.50;;
22468;SDS011;11401;50.792;4.352;2023-04-25T13:23:42;6.10;;;1.40;;
22468;SDS011;11401;50.792;4.352;2023-04-25T13:26:10;3.08;;;1.33;;
22468;SDS011;11401;50.792;4.352;2023-04-25T13:28:37;4.65;;;1.30;;
22468;SDS011;11401;50.792;4.352;2023-04-25T13:31:09;6.70;;;1.30;;
22468;SDS011;11401;50.792;4.352;2023-04-25T13:33:37;4.22;;;2.10;;
22468;SDS011;11401;50.792;4.352;2023-04-25T13:36:04;3.45;;;1.67;;
22468;SDS011;11401;50.792;4.352;2023-04-25T13:38:32;2.22;;;1.33;;
22468;SDS011;11401;50.792;4.352;2023-04-25T13:40:59;6.70;;;1.85;;
22468;SDS011;11401;50.792;4.352;2023-04-25T13:43:27;5.45;;;1.60;;
22468;SDS011;11401;50.792;4.352;2023-04-25T13:45:54;4.63;;;1.65;;
22468;SDS011;11401;50.792;4.352;2023-04-25T13:48:21;2.22;;;1.38;;
22468;SDS011;11401;50.792;4.352;2023-04-25T13:50:49;2.13;;;1.35;;
22468;SDS011;11401;50.792;4.352;2023-04-25T13:53:16;3.42;;;1.08;;
22468;SDS011;11401;50.792;4.352;2023-04-25T13:55:44;2.92;;;1.58;;
22468;SDS011;11401;50.792;4.352;2023-04-25T13:58:11;5.45;;;2.28;;
22468;SDS011;11401;50.792;4.352;2023-04-25T14:00:38;2.63;;;1.55;;
22468;SDS011;11401;50.792;4.352;2023-04-25T14:03:06;2.72;;;1.70;;
22468;SDS011;11401;50.792;4.352;2023-04-25T14:05:35;1.30;;;1.20;;
22468;SDS011;11401;50.792;4.352;2023-04-25T14:08:07;5.50;;;1.75;;
22468;SDS011;11401;50.792;4.352;2023-04-25T14:10:35;4.72;;;1.42;;
22468;SDS011;11401;50.792;4.352;2023-04-25T14:13:03;2.35;;;1.33;;
22468;SDS011;11401;50.792;4.352;2023-04-25T14:15:31;2.78;;;1.73;;
22468;SDS011;11401;50.792;4.352;2023-04-25T14:17:59;4.68;;;1.70;;
22468;SDS011;11401;50.792;4.352;2023-04-25T14:20:26;2.05;;;1.15;;
22468;SDS011;11401;50.792;4.352;2023-04-25T14:22:54;7.88;;;1.67;;
22468;SDS011;11401;50.792;4.352;2023-04-25T14:25:22;4.03;;;1.60;;
22468;SDS011;11401;50.792;4.352;2023-04-25T14:27:50;2.97;;;1.50;;
22468;SDS011;11401;50.792;4.352;2023-04-25T14:30:18;2.35;;;1.25;;
22468;SDS011;11401;50.792;4.352;2023-04-25T14:32:48;2.55;;;1.25;;
22468;SDS011;11401;50.792;4.352;2023-04-25T14:35:16;5.72;;;1.50;;
22468;SDS011;11401;50.792;4.352;2023-04-25T14:37:43;1.88;;;1.27;;
22468;SDS011;11401;50.792;4.352;2023-04-25T14:40:11;2.55;;;1.65;;
22468;SDS011;11401;50.792;4.352;2023-04-25T14:42:39;4.55;;;1.88;;
22468;SDS011;11401;50.792;4.352;2023-04-25T14:45:07;2.55;;;1.30;;
22468;SDS011;11401;50.792;4.352;2023-04-25T14:47:38;2.25;;;0.98;;
22468;SDS011;11401;50.792;4.352;2023-04-25T14:50:06;3.85;;;1.20;;
22468;SDS011;11401;50.792;4.352;2023-04-25T14:52:35;3.75;;;1.10;;
22468;SDS011;11401;50.792;4.352;2023-04-25T14:55:02;4.20;;;1.65;;
22468;SDS011;11401;50.792;4.352;2023-04-25T14:57:32;6.30;;;1.67;;
22468;SDS011;11401;50.792;4.352;2023-04-25T14:59:59;4.78;;;1.60;;
22468;SDS011;11401;50.792;4.352;2023-04-25T15:02:27;3.03;;;1.40;;
22468;SDS011;11401;50.792;4.352;2023-04-25T15:04:54;4.75;;;1.85;;
22468;SDS011;11401;50.792;4.352;2023-04-25T15:07:25;4.47;;;1.17;;
22468;SDS011;11401;50.792;4.352;2023-04-25T15:09:52;3.03;;;1.52;;
22468;SDS011;11401;50.792;4.352;2023-04-25T15:12:20;4.97;;;1.80;;
22468;SDS011;11401;50.792;4.352;2023-04-25T15:14:47;2.33;;;1.42;;
22468;SDS011;11401;50.792;4.352;2023-04-25T15:17:14;2.10;;;1.40;;
22468;SDS011;11401;50.792;4.352;2023-04-25T15:19:41;3.75;;;1.40;;
22468;SDS011;11401;50.792;4.352;2023-04-25T15:22:08;3.90;;;1.67;;
22468;SDS011;11401;50.792;4.352;2023-04-25T15:24:36;4.65;;;1.80;;
22468;SDS011;11401;50.792;4.352;2023-04-25T15:27:03;3.65;;;1.30;;
22468;SDS011;11401;50.792;4.352;2023-04-25T15:29:31;7.03;;;1.30;;
22468;SDS011;11401;50.792;4.352;2023-04-25T15:31:58;3.08;;;1.70;;